createdAt,value
2022-10-22T00:01:28.161Z,100758.25
2022-10-22T00:03:54.682Z,100763.53
2022-10-22T00:06:21.051Z,100762.63
2022-10-22T00:08:47.384Z,100764.44
2022-10-22T00:11:15.222Z,100762.63
2022-10-22T00:13:41.978Z,100770.53
2022-10-22T00:16:08.860Z,100770.50
2022-10-22T00:18:35.467Z,100781.09
2022-10-22T00:21:02.331Z,100769.63
2022-10-22T00:23:28.858Z,100763.44
2022-10-22T00:25:55.224Z,100769.66
2022-10-22T00:28:21.881Z,100765.25
2022-10-22T00:30:48.161Z,100765.28
2022-10-22T00:33:14.462Z,100766.19
2022-10-22T00:35:40.732Z,100761.81
2022-10-22T00:38:06.993Z,100764.47
2022-10-22T00:40:33.245Z,100763.63
2022-10-22T00:42:59.538Z,100761.88
2022-10-22T00:45:27.557Z,100766.28
2022-10-22T00:47:57.643Z,100764.53
2022-10-22T00:50:26.808Z,100768.09
2022-10-22T00:52:54.091Z,100764.53
2022-10-22T00:55:20.696Z,100766.28
2022-10-22T00:57:47.456Z,100778.59
2022-10-22T01:00:14.423Z,100772.38
2022-10-22T01:02:40.996Z,100772.38
2022-10-22T01:05:07.710Z,100783.81
2022-10-22T01:07:35.798Z,100776.75
2022-10-22T01:10:05.126Z,100775.84
2022-10-22T01:12:42.454Z,100771.41
2022-10-22T01:15:27.798Z,100774.94
2022-10-22T01:18:02.613Z,100775.91
2022-10-22T01:20:28.831Z,100763.56
2022-10-22T01:23:15.330Z,100766.22
2022-10-22T01:26:01.848Z,100764.47
2022-10-22T01:28:49.362Z,100765.38
2022-10-22T01:31:16.902Z,100758.34
2022-10-22T01:33:44.651Z,100762.75
2022-10-22T01:36:12.002Z,100768.91
2022-10-22T01:38:38.845Z,100758.34
2022-10-22T01:41:05.546Z,100761.88
2022-10-22T01:43:31.804Z,100766.22
2022-10-22T01:46:00.763Z,100766.19
2022-10-22T01:48:51.719Z,100769.69
2022-10-22T01:51:36.458Z,100789.09
2022-10-22T01:54:07.803Z,100776.69
2022-10-22T01:56:37.097Z,100785.56
2022-10-22T01:59:04.022Z,100794.38
2022-10-22T02:01:50.555Z,100782.88
2022-10-22T02:04:26.032Z,100781.06
2022-10-22T02:06:54.722Z,100781.97
2022-10-22T02:09:23.703Z,100781.97
2022-10-22T02:11:50.722Z,100782.88
2022-10-22T02:14:18.332Z,100782.00
2022-10-22T02:16:46.025Z,100778.50
2022-10-22T02:19:38.302Z,100783.78
2022-10-22T02:22:04.949Z,100782.88
2022-10-22T02:24:31.445Z,100777.56
2022-10-22T02:27:03.598Z,100781.06
2022-10-22T02:29:35.873Z,100774.84
2022-10-22T02:32:03.562Z,100780.16
2022-10-22T02:34:31.455Z,100781.91
2022-10-22T02:37:00.241Z,100775.72
2022-10-22T02:39:27.214Z,100781.88
2022-10-22T02:41:55.502Z,100776.56
2022-10-22T02:44:22.066Z,100782.75
2022-10-22T02:46:48.441Z,100774.75
2022-10-22T02:49:14.833Z,100780.03
2022-10-22T02:51:41.079Z,100776.53
2022-10-22T02:54:07.661Z,100772.09
2022-10-22T02:56:34.105Z,100776.47
2022-10-22T02:59:00.497Z,100774.72
2022-10-22T03:01:26.754Z,100779.13
2022-10-22T03:03:53.031Z,100772.09
2022-10-22T03:06:19.480Z,100776.47
2022-10-22T03:08:45.915Z,100770.34
2022-10-22T03:11:12.259Z,100772.16
2022-10-22T03:13:38.501Z,100773.91
2022-10-22T03:16:05.017Z,100771.25
2022-10-22T03:18:31.359Z,100776.56
2022-10-22T03:21:01.500Z,100782.75
2022-10-22T03:23:27.776Z,100780.03
2022-10-22T03:25:54.077Z,100782.69
2022-10-22T03:28:20.745Z,100779.13
2022-10-22T03:30:46.995Z,100778.28
2022-10-22T03:33:13.230Z,100780.13
2022-10-22T03:35:43.802Z,100787.22
2022-10-22T03:38:10.469Z,100785.53
2022-10-22T03:40:36.733Z,100775.88
2022-10-22T03:43:03.065Z,100785.72
2022-10-22T03:45:29.410Z,100788.38
2022-10-22T03:47:55.719Z,100794.59
2022-10-22T03:50:21.965Z,100794.63
2022-10-22T03:52:48.265Z,100793.78
2022-10-22T03:55:14.532Z,100797.25
2022-10-22T03:57:40.966Z,100791.06
2022-10-22T04:00:07.715Z,100800.75
2022-10-22T04:02:34.061Z,100800.75
2022-10-22T04:05:00.371Z,100807.81
2022-10-22T04:07:27.044Z,100813.06
2022-10-22T04:09:53.401Z,100820.97
2022-10-22T04:12:19.695Z,100818.28
2022-10-22T04:14:45.995Z,100817.38
2022-10-22T04:17:12.252Z,100811.25
2022-10-22T04:19:38.536Z,100809.56
2022-10-22T04:22:04.781Z,100812.25
2022-10-22T04:24:31.891Z,100814.88
2022-10-22T04:26:58.226Z,100819.25
2022-10-22T04:29:24.559Z,100823.63
2022-10-22T04:31:50.899Z,100829.75
2022-10-22T04:34:17.205Z,100835.88
2022-10-22T04:36:43.485Z,100836.69
2022-10-22T04:39:09.747Z,100835.69
2022-10-22T04:41:37.097Z,100834.75
2022-10-22T04:44:03.690Z,100836.47
2022-10-22T04:46:31.374Z,100841.75
2022-10-22T04:48:58.114Z,100843.53
2022-10-22T04:51:25.561Z,100848.78
2022-10-22T04:53:51.874Z,100848.75
2022-10-22T04:56:22.636Z,100847.84
2022-10-22T04:58:49.851Z,100851.41
2022-10-22T05:01:17.968Z,100854.94
2022-10-22T05:03:45.588Z,100855.81
2022-10-22T05:08:39.477Z,100854.94
2022-10-22T05:11:16.792Z,100856.72
2022-10-22T05:13:43.347Z,100854.94
2022-10-22T05:16:09.773Z,100854.06
2022-10-22T05:18:36.923Z,100859.38
2022-10-22T05:21:21.587Z,100855.81
2022-10-22T05:23:49.220Z,100859.38
2022-10-22T05:26:17.047Z,100861.16
2022-10-22T05:28:43.449Z,100849.66
2022-10-22T05:31:11.460Z,100849.66
2022-10-22T05:33:38.008Z,100854.06
2022-10-22T05:36:05.238Z,100848.78
2022-10-22T05:38:31.962Z,100845.28
2022-10-22T05:41:07.145Z,100847.03
2022-10-22T05:43:33.650Z,100844.38
2022-10-22T05:46:03.995Z,100842.63
2022-10-22T05:48:30.285Z,100833.78
2022-10-22T05:50:56.680Z,100844.38
2022-10-22T05:53:23.023Z,100839.97
2022-10-22T05:55:49.279Z,100848.78
2022-10-22T05:58:15.518Z,100846.13
2022-10-22T06:00:41.774Z,100848.78
2022-10-22T06:03:08.044Z,100841.72
2022-10-22T06:05:34.913Z,100850.56
2022-10-22T06:08:01.209Z,100854.97
2022-10-22T06:10:27.985Z,100857.63
2022-10-22T06:12:54.291Z,100855.88
2022-10-22T06:15:20.895Z,100858.53
2022-10-22T06:17:47.801Z,100855.91
2022-10-22T06:20:14.838Z,100864.75
2022-10-22T06:22:41.317Z,100875.34
2022-10-22T06:25:12.468Z,100866.50
2022-10-22T06:27:38.711Z,100869.16
2022-10-22T06:30:05.187Z,100882.41
2022-10-22T06:32:31.487Z,100875.34
2022-10-22T06:34:57.835Z,100885.91
2022-10-22T06:37:24.163Z,100887.69
2022-10-22T06:39:50.472Z,100892.97
2022-10-22T06:42:16.737Z,100896.50
2022-10-22T06:44:42.979Z,100906.19
2022-10-22T06:47:09.239Z,100902.59
2022-10-22T06:49:35.470Z,100899.06
2022-10-22T06:52:01.715Z,100907.00
2022-10-22T06:54:27.979Z,100903.50
2022-10-22T06:56:54.250Z,100909.66
2022-10-22T06:59:20.839Z,100907.91
2022-10-22T07:01:47.875Z,100909.66
2022-10-22T07:04:14.273Z,100907.03
2022-10-22T07:06:40.892Z,100914.06
2022-10-22T07:09:07.399Z,100918.50
2022-10-22T07:11:41.673Z,100911.41
2022-10-22T07:14:08.585Z,100918.50
2022-10-22T07:16:35.390Z,100916.69
2022-10-22T07:19:02.471Z,100923.75
2022-10-22T07:21:30.570Z,100918.47
2022-10-22T07:23:57.535Z,100920.22
2022-10-22T07:26:25.358Z,100929.09
2022-10-22T07:28:52.173Z,100925.50
2022-10-22T07:31:19.024Z,100926.41
2022-10-22T07:33:45.860Z,100931.75
2022-10-22T07:36:17.438Z,100935.25
2022-10-22T07:38:45.091Z,100942.28
2022-10-22T07:41:11.486Z,100944.94
2022-10-22T07:43:37.854Z,100942.34
2022-10-22T07:46:04.128Z,100944.13
2022-10-22T07:48:30.898Z,100947.69
2022-10-22T07:50:58.371Z,100952.97
2022-10-22T07:53:24.702Z,100952.91
2022-10-22T07:55:51.916Z,100953.78
2022-10-22T07:58:19.177Z,100951.06
2022-10-22T08:00:45.657Z,100962.56
2022-10-22T08:03:12.882Z,100961.59
2022-10-22T08:05:39.646Z,100966.03
2022-10-22T08:08:06.930Z,100965.13
2022-10-22T08:10:33.481Z,100972.19
2022-10-22T08:12:59.732Z,100974.81
2022-10-22T08:15:27.328Z,100978.31
2022-10-22T08:17:53.816Z,100979.19
2022-10-22T08:20:20.636Z,100983.59
2022-10-22T08:22:46.993Z,100981.81
2022-10-22T08:25:13.881Z,100977.34
2022-10-22T08:27:44.059Z,100976.47
2022-10-22T08:30:10.979Z,100973.75
2022-10-22T08:32:37.594Z,100986.97
2022-10-22T08:35:04.225Z,100986.03
2022-10-22T08:37:30.580Z,100973.63
2022-10-22T08:39:56.872Z,100981.53
2022-10-22T08:42:38.665Z,100981.50
2022-10-22T08:45:22.997Z,100989.38
2022-10-22T08:48:01.699Z,100990.22
2022-10-22T08:50:34.539Z,100985.75
2022-10-22T08:53:03.301Z,100991.94
2022-10-22T08:55:35.020Z,100988.38
2022-10-22T08:58:03.470Z,101001.66
2022-10-22T09:00:29.858Z,101004.22
2022-10-22T09:03:02.400Z,101005.97
2022-10-22T09:05:55.633Z,101003.25
2022-10-22T09:08:22.768Z,101005.09
2022-10-22T09:10:51.941Z,101013.06
2022-10-22T09:13:20.298Z,101017.56
2022-10-22T09:15:52.646Z,101022.09
2022-10-22T09:18:18.952Z,101024.81
2022-10-22T09:20:45.185Z,101015.13
2022-10-22T09:23:11.428Z,101016.03
2022-10-22T09:25:38.469Z,101018.75
2022-10-22T09:28:04.832Z,101012.53
2022-10-22T09:30:34.751Z,101016.00
2022-10-22T09:33:07.242Z,101021.34
2022-10-22T09:35:45.322Z,101025.75
2022-10-22T09:38:13.265Z,101031.09
2022-10-22T09:40:44.015Z,101025.81
2022-10-22T09:43:12.486Z,101031.09
2022-10-22T09:45:38.857Z,101034.59
2022-10-22T09:48:17.585Z,101038.94
2022-10-22T09:50:48.538Z,101027.28
2022-10-22T09:53:25.222Z,101035.16
2022-10-22T09:58:27.551Z,101032.31
2022-10-22T10:00:55.721Z,101038.41
2022-10-22T10:03:23.502Z,101038.41
2022-10-22T10:05:53.092Z,101041.00
2022-10-22T10:08:19.709Z,101053.41
2022-10-22T10:10:48.681Z,101048.03
2022-10-22T10:13:25.750Z,101043.50
2022-10-22T10:16:10.704Z,101039.88
2022-10-22T10:18:52.225Z,101044.84
2022-10-22T10:21:29.772Z,101043.81
2022-10-22T10:24:11.028Z,101041.09
2022-10-22T10:26:37.272Z,101043.47
2022-10-22T10:29:06.604Z,101040.69
2022-10-22T10:31:32.831Z,101035.09
2022-10-22T10:34:09.988Z,101028.59
2022-10-22T10:36:54.337Z,101024.06
2022-10-22T10:39:26.655Z,101023.88
2022-10-22T10:41:59.350Z,101021.91
2022-10-22T10:44:34.759Z,101019.72
2022-10-22T10:47:04.098Z,101019.50
2022-10-22T10:49:33.148Z,101022.09
2022-10-22T10:52:20.518Z,101021.16
2022-10-22T10:54:47.708Z,101023.94
2022-10-22T10:57:13.939Z,101029.44
2022-10-22T10:59:58.575Z,101029.19
2022-10-22T11:02:24.824Z,101033.84
2022-10-22T11:04:54.069Z,101033.50
2022-10-22T11:07:34.337Z,101022.50
2022-10-22T11:10:30.730Z,101012.78
2022-10-22T11:13:10.813Z,101005.88
2022-10-22T11:15:39.260Z,101013.16
2022-10-22T11:18:18.625Z,101014.38
2022-10-22T11:21:02.043Z,101014.72
2022-10-22T11:23:32.747Z,101011.94
2022-10-22T11:26:00.235Z,101008.50
2022-10-22T11:28:33.851Z,101003.56
2022-10-22T11:31:02.862Z,101001.13
2022-10-22T11:33:36.477Z,100999.28
2022-10-22T11:36:03.832Z,101005.03
2022-10-22T11:38:35.111Z,101003.81
2022-10-22T11:41:01.627Z,101007.59
2022-10-22T11:43:31.082Z,100990.06
2022-10-22T11:46:17.582Z,100997.84
2022-10-22T11:48:44.307Z,100996.97
2022-10-22T11:51:31.956Z,100997.25
2022-10-22T11:53:58.321Z,100989.97
2022-10-22T11:56:26.133Z,100995.00
2022-10-22T11:58:54.788Z,100990.41
2022-10-22T12:01:23.737Z,100994.16
2022-10-22T12:03:52.034Z,100985.66
2022-10-22T12:06:20.905Z,100991.38
2022-10-22T12:08:52.847Z,100992.28
2022-10-22T12:11:19.179Z,100989.66
2022-10-22T12:14:00.159Z,100982.19
2022-10-22T12:16:43.942Z,100985.38
2022-10-22T12:19:16.034Z,100981.25
2022-10-22T12:21:43.539Z,100976.44
2022-10-22T12:24:14.010Z,100971.50
2022-10-22T12:26:40.311Z,100974.91
2022-10-22T12:29:10.078Z,100973.66
2022-10-22T12:31:37.669Z,100975.31
2022-10-22T12:34:03.960Z,100970.63
2022-10-22T12:36:31.916Z,100966.72
2022-10-22T12:39:01.808Z,100970.16
2022-10-22T12:41:32.544Z,100962.53
2022-10-22T12:43:59.406Z,100964.41
2022-10-22T12:46:27.153Z,100966.13
2022-10-22T12:48:53.637Z,100970.22
2022-10-22T12:51:20.350Z,100956.88
2022-10-22T12:53:47.965Z,100964.06
2022-10-22T12:56:20.619Z,100962.94
2022-10-22T12:58:55.079Z,100973.00
2022-10-22T13:01:21.411Z,100965.81
2022-10-22T13:03:52.157Z,100971.75
2022-10-22T13:06:18.380Z,100967.91
2022-10-22T13:09:00.338Z,100977.72
2022-10-22T13:11:34.326Z,100973.59
2022-10-22T13:14:17.874Z,100976.44
2022-10-22T13:17:02.248Z,100978.22
2022-10-22T13:19:37.592Z,100984.53
2022-10-22T13:22:04.042Z,100982.66
2022-10-22T13:24:31.026Z,100986.31
2022-10-22T13:26:57.393Z,100984.59
2022-10-22T13:29:24.193Z,100991.00
2022-10-22T13:31:51.784Z,100993.91
2022-10-22T13:34:20.187Z,100985.09
2022-10-22T13:36:46.709Z,100998.69
2022-10-22T13:39:20.107Z,100994.53
2022-10-22T13:41:46.788Z,100997.38
2022-10-22T13:44:13.103Z,100997.50
2022-10-22T13:46:42.657Z,100988.63
2022-10-22T13:49:16.583Z,100994.03
2022-10-22T13:51:43.198Z,100994.91
2022-10-22T13:54:13.971Z,100996.69
2022-10-22T13:56:40.227Z,100995.84
2022-10-22T13:59:06.529Z,100996.03
2022-10-22T14:01:32.813Z,100991.75
2022-10-22T14:04:01.883Z,100990.09
2022-10-22T14:06:31.265Z,100992.84
2022-10-22T14:08:59.258Z,100996.53
2022-10-22T14:11:27.288Z,100994.78
2022-10-22T14:13:53.951Z,100998.41
2022-10-22T14:16:21.556Z,100989.56
2022-10-22T14:18:48.691Z,100996.75
2022-10-22T14:21:15.936Z,100991.47
2022-10-22T14:23:43.058Z,100994.97
2022-10-22T14:26:24.482Z,100992.38
2022-10-22T14:29:14.685Z,100995.97
2022-10-22T14:31:38.065Z,101000.50
2022-10-22T14:34:04.348Z,100993.53
2022-10-22T14:36:30.603Z,100998.03
2022-10-22T14:38:56.855Z,100991.88
2022-10-22T14:41:24.130Z,100992.88
2022-10-22T14:43:51.562Z,100991.16
2022-10-22T14:46:18.704Z,101001.06
2022-10-22T14:48:45.405Z,100994.94
2022-10-22T14:51:15.747Z,100994.13
2022-10-22T14:53:42.161Z,100997.69
2022-10-22T14:56:13.076Z,101001.31
2022-10-22T14:58:39.972Z,101004.94
2022-10-22T15:01:06.419Z,101005.91
2022-10-22T15:03:32.719Z,101007.78
2022-10-22T15:05:59.302Z,100999.81
2022-10-22T15:08:26.958Z,101006.94
2022-10-22T15:10:59.215Z,101014.03
2022-10-22T15:13:26.306Z,101011.34
2022-10-22T15:15:52.695Z,101015.72
2022-10-22T15:18:19.122Z,101015.69
2022-10-22T15:20:45.406Z,101016.50
2022-10-22T15:23:11.666Z,101025.34
2022-10-22T15:25:38.181Z,101017.31
2022-10-22T15:28:09.595Z,101019.19
2022-10-22T15:30:36.438Z,101016.75
2022-10-22T15:33:03.070Z,101024.91
2022-10-22T15:35:29.416Z,101031.31
2022-10-22T15:37:55.689Z,101030.59
2022-10-22T15:40:21.959Z,101031.59
2022-10-22T15:42:48.335Z,101034.41
2022-10-22T15:45:15.645Z,101041.66
2022-10-22T15:47:47.356Z,101041.78
2022-10-22T15:50:14.209Z,101046.34
2022-10-22T15:52:40.486Z,101049.94
2022-10-22T15:55:10.396Z,101054.47
2022-10-22T15:57:37.360Z,101043.91
2022-10-22T16:00:04.637Z,101057.28
2022-10-22T16:02:30.922Z,101055.59
2022-10-22T16:04:58.687Z,101052.16
2022-10-22T16:07:25.809Z,101052.22
2022-10-22T16:09:55.442Z,101054.06
2022-10-22T16:12:21.715Z,101055.00
2022-10-22T16:14:50.085Z,101062.16
2022-10-22T16:17:16.383Z,101063.06
2022-10-22T16:19:42.715Z,101069.28
2022-10-22T16:22:11.412Z,101071.09
2022-10-22T16:24:41.114Z,101075.53
2022-10-22T16:27:08.161Z,101084.41
2022-10-22T16:29:34.433Z,101089.78
2022-10-22T16:32:00.767Z,101088.06
2022-10-22T16:34:27.503Z,101088.06
2022-10-22T16:36:54.077Z,101080.94
2022-10-22T16:39:20.343Z,101084.50
2022-10-22T16:41:46.823Z,101084.50
2022-10-22T16:44:13.319Z,101083.63
2022-10-22T16:46:39.770Z,101080.13
2022-10-22T16:49:06.456Z,101094.34
2022-10-22T16:51:33.052Z,101087.25
2022-10-22T16:53:59.336Z,101097.00
2022-10-22T16:56:26.043Z,101100.56
2022-10-22T16:58:53.297Z,101104.16
2022-10-22T17:01:20.581Z,101106.94
2022-10-22T17:03:47.121Z,101104.34
2022-10-22T17:06:14.020Z,101112.41
2022-10-22T17:08:40.997Z,101122.19
2022-10-22T17:11:08.185Z,101122.31
2022-10-22T17:13:34.538Z,101124.19
2022-10-22T17:16:01.895Z,101134.03
2022-10-22T17:18:28.137Z,101131.44
2022-10-22T17:20:56.152Z,101135.06
2022-10-22T17:23:22.576Z,101137.72
2022-10-22T17:25:48.829Z,101143.97
2022-10-22T17:28:15.112Z,101147.56
2022-10-22T17:30:41.710Z,101149.34
2022-10-22T17:33:08.503Z,101151.13
2022-10-22T17:35:35.583Z,101158.22
2022-10-22T17:38:01.888Z,101154.69
2022-10-22T17:40:28.194Z,101152.97
2022-10-22T17:42:54.516Z,101159.16
2022-10-22T17:45:20.794Z,101159.16
2022-10-22T17:47:47.167Z,101161.00
2022-10-22T17:50:13.501Z,101161.91
2022-10-22T17:52:40.014Z,101165.50
2022-10-22T17:55:06.879Z,101165.50
2022-10-22T17:57:33.128Z,101166.34
2022-10-22T17:59:59.425Z,101169.91
2022-10-22T18:02:25.694Z,101170.78
2022-10-22T18:04:52.464Z,101167.22
2022-10-22T18:07:18.948Z,101175.19
2022-10-22T18:09:45.267Z,101168.16
2022-10-22T18:12:13.695Z,101178.84
2022-10-22T18:14:40.308Z,101181.69
2022-10-22T18:17:06.787Z,101180.91
2022-10-22T18:19:33.599Z,101194.31
2022-10-22T18:22:09.347Z,101195.22
2022-10-22T18:24:36.515Z,101199.69
2022-10-22T18:27:02.867Z,101200.63
2022-10-22T18:29:29.218Z,101204.13
2022-10-22T18:31:55.574Z,101200.63
2022-10-22T18:34:23.899Z,101207.69
2022-10-22T18:36:50.560Z,101203.28
2022-10-22T18:39:16.888Z,101200.63
2022-10-22T18:41:43.342Z,101206.88
2022-10-22T18:44:13.255Z,101210.44
2022-10-22T18:46:40.160Z,101205.13
2022-10-22T18:49:09.585Z,101209.53
2022-10-22T18:51:35.875Z,101215.69
2022-10-22T18:54:21.748Z,101213.84
2022-10-22T18:56:48.831Z,101212.13
2022-10-22T18:59:17.484Z,101215.75
2022-10-22T19:01:43.792Z,101210.47
2022-10-22T19:04:10.071Z,101205.19
2022-10-22T19:06:37.067Z,101214.97
2022-10-22T19:09:04.588Z,101222.94
2022-10-22T19:11:31.442Z,101222.94
2022-10-22T19:13:58.159Z,101219.44
2022-10-22T19:16:24.582Z,101220.28
2022-10-22T19:18:51.971Z,101230.91
2022-10-22T19:21:18.644Z,101236.22
2022-10-22T19:26:18.364Z,101236.19
2022-10-22T19:28:44.974Z,101237.09
2022-10-22T19:31:12.862Z,101244.16
2022-10-22T19:33:39.952Z,101245.06
2022-10-22T19:36:10.564Z,101249.50
2022-10-22T19:38:43.917Z,101249.50
2022-10-22T19:41:12.444Z,101254.88
2022-10-22T19:43:39.194Z,101259.28
2022-10-22T19:46:05.739Z,101261.94
2022-10-22T19:48:32.279Z,101268.16
2022-10-22T19:51:02.986Z,101269.91
2022-10-22T19:53:32.842Z,101261.06
2022-10-22T19:55:59.763Z,101270.81
2022-10-22T19:58:26.624Z,101271.72
2022-10-22T20:00:53.115Z,101277.88
2022-10-22T20:03:23.059Z,101279.69
2022-10-22T20:05:52.210Z,101286.75
2022-10-22T20:08:18.511Z,101292.97
2022-10-22T20:10:47.948Z,101292.06
2022-10-22T20:13:14.231Z,101295.56
2022-10-22T20:15:40.527Z,101295.56
2022-10-22T20:18:06.758Z,101297.38
2022-10-22T20:20:33.013Z,101297.38
2022-10-22T20:22:59.265Z,101302.69
2022-10-22T20:25:25.561Z,101299.16
2022-10-22T20:27:51.847Z,101298.31
2022-10-22T20:30:20.049Z,101299.25
2022-10-22T20:32:46.418Z,101293.13
2022-10-22T20:35:14.179Z,101288.75
2022-10-22T20:37:40.676Z,101301.16
2022-10-22T20:40:07.547Z,101294.09
2022-10-22T20:42:34.377Z,101298.56
2022-10-22T20:45:00.814Z,101299.44
2022-10-22T20:47:34.271Z,101303.91
2022-10-22T20:50:14.152Z,101304.78
2022-10-22T20:52:40.422Z,101307.41
2022-10-22T20:55:06.911Z,101303.84
2022-10-22T20:57:33.276Z,101306.50
2022-10-22T20:59:59.552Z,101317.97
2022-10-22T21:02:25.856Z,101327.69
2022-10-22T21:04:52.094Z,101321.47
2022-10-22T21:07:18.366Z,101323.22
2022-10-22T21:09:44.961Z,101324.97
2022-10-22T21:12:11.318Z,101322.31
2022-10-22T21:14:37.576Z,101323.22
2022-10-22T21:17:03.936Z,101332.03
2022-10-22T21:19:31.160Z,101337.34
2022-10-22T21:21:57.445Z,101331.13
2022-10-22T21:24:24.821Z,101345.31
2022-10-22T21:26:52.309Z,101340.91
2022-10-22T21:29:20.060Z,101344.41
2022-10-22T21:31:46.519Z,101350.66
2022-10-22T21:34:13.311Z,101347.16
2022-10-22T21:36:40.469Z,101336.59
2022-10-22T21:39:07.297Z,101339.28
2022-10-22T21:41:33.612Z,101338.44
2022-10-22T21:43:59.929Z,101336.66
2022-10-22T21:46:27.201Z,101341.13
2022-10-22T21:48:57.715Z,101335.81
2022-10-22T21:51:25.158Z,101340.25
2022-10-22T21:56:30.375Z,101344.63
2022-10-22T21:58:56.661Z,101337.59
2022-10-22T22:01:22.997Z,101337.59
2022-10-22T22:03:49.896Z,101349.06
2022-10-22T22:06:21.122Z,101342.91
2022-10-22T22:08:48.204Z,101342.91
2022-10-22T22:11:15.874Z,101342.91
2022-10-22T22:13:42.327Z,101344.69
2022-10-22T22:16:29.003Z,101345.56
2022-10-22T22:18:56.601Z,101348.19
2022-10-22T22:21:22.895Z,101344.66
2022-10-22T22:23:50.079Z,101342.88
2022-10-22T22:26:17.873Z,101348.16
2022-10-22T22:28:44.282Z,101346.38
2022-10-22T22:31:15.084Z,101345.50
2022-10-22T22:33:41.806Z,101344.59
2022-10-22T22:36:08.275Z,101345.47
2022-10-22T22:38:34.655Z,101350.75
2022-10-22T22:41:01.130Z,101346.34
2022-10-22T22:43:27.763Z,101354.28
2022-10-22T22:46:20.179Z,101343.66
2022-10-22T22:48:49.693Z,101340.13
2022-10-22T22:51:16.074Z,101339.25
2022-10-22T22:53:42.352Z,101335.69
2022-10-22T22:56:18.768Z,101333.03
2022-10-22T22:58:45.484Z,101340.06
2022-10-22T23:01:13.606Z,101337.38
2022-10-22T23:03:40.138Z,101332.94
2022-10-22T23:06:06.643Z,101325.88
2022-10-22T23:08:33.658Z,101333.75
2022-10-22T23:11:07.858Z,101334.63
2022-10-22T23:13:34.930Z,101327.53
2022-10-22T23:16:05.395Z,101327.53
2022-10-22T23:18:31.639Z,101333.69
2022-10-22T23:20:57.920Z,101322.22
2022-10-22T23:23:24.235Z,101324.84
2022-10-22T23:25:50.513Z,101317.81
2022-10-22T23:28:16.792Z,101323.97
2022-10-22T23:30:44.218Z,101320.41
2022-10-22T23:33:10.971Z,101315.16
2022-10-22T23:35:41.519Z,101318.69
2022-10-22T23:38:08.586Z,101315.16
2022-10-22T23:40:34.951Z,101315.16
2022-10-22T23:43:01.399Z,101314.28
2022-10-22T23:45:27.655Z,101319.56
2022-10-22T23:47:54.031Z,101323.94
2022-10-22T23:50:20.286Z,101319.47
2022-10-22T23:52:46.552Z,101329.09
2022-10-22T23:55:12.824Z,101327.31
2022-10-22T23:57:39.069Z,101324.59
